createdAt,value
2023-02-28T18:31:56.308Z,3.10
2023-02-28T18:32:56.184Z,4.30
2023-02-28T18:33:56.126Z,4.40
2023-02-28T18:34:56.073Z,5.00
2023-02-28T18:35:56.071Z,4.80
2023-02-28T18:36:55.961Z,5.30
2023-02-28T18:37:55.909Z,5.90
2023-02-28T18:38:55.861Z,5.40
2023-02-28T18:39:55.809Z,6.00
2023-02-28T18:40:55.788Z,6.80
2023-02-28T18:41:55.702Z,6.20
2023-02-28T18:42:55.654Z,5.80
2023-02-28T18:43:55.604Z,6.10
2023-02-28T18:44:55.552Z,5.40
2023-02-28T18:45:55.523Z,6.50
2023-02-28T18:46:55.482Z,6.60
2023-02-28T18:47:55.424Z,7.90
2023-02-28T18:48:55.349Z,9.70
2023-02-28T18:49:55.298Z,9.90
2023-02-28T18:50:55.248Z,10.60
2023-02-28T18:51:55.197Z,10.30
2023-02-28T18:52:55.152Z,9.60
2023-02-28T18:53:55.102Z,9.10
2023-02-28T18:54:55.048Z,8.50
2023-02-28T18:55:54.999Z,8.00
2023-02-28T18:56:54.956Z,7.40
2023-02-28T18:57:54.906Z,7.50
2023-02-28T18:58:54.848Z,8.20
2023-02-28T18:59:54.807Z,7.40
2023-02-28T19:00:54.839Z,7.40
2023-02-28T19:01:54.705Z,8.10
2023-02-28T19:02:54.650Z,7.60
2023-02-28T19:03:54.663Z,7.70
2023-02-28T19:04:54.553Z,7.00
2023-02-28T19:05:54.505Z,7.40
2023-02-28T19:06:54.463Z,7.90
2023-02-28T19:07:54.409Z,7.40
2023-02-28T19:08:54.358Z,7.50
2023-02-28T19:09:54.308Z,7.30
2023-02-28T19:10:54.266Z,7.40
2023-02-28T19:11:54.213Z,7.20
2023-02-28T19:12:54.167Z,7.00
2023-02-28T19:13:54.114Z,7.70
2023-02-28T19:14:54.067Z,8.30
2023-02-28T19:15:57.233Z,7.80
2023-02-28T19:16:54.050Z,7.70
2023-02-28T19:17:53.923Z,8.20
2023-02-28T19:18:53.870Z,8.90
2023-02-28T19:19:53.839Z,13.50
2023-02-28T19:20:53.776Z,14.70
2023-02-28T19:21:55.491Z,16.00
2023-02-28T19:22:53.692Z,13.80
2023-02-28T19:23:53.648Z,12.00
2023-02-28T19:24:53.588Z,12.80
2023-02-28T19:25:53.528Z,13.50
2023-02-28T19:26:53.476Z,18.70
2023-02-28T19:27:53.426Z,24.30
2023-02-28T19:28:53.377Z,27.20
2023-02-28T19:29:53.331Z,25.60
2023-02-28T19:30:53.279Z,17.50
2023-02-28T19:31:53.404Z,16.00
2023-02-28T19:32:53.267Z,10.90
2023-02-28T19:33:53.221Z,9.90
2023-02-28T19:34:53.085Z,8.90
2023-02-28T19:35:53.221Z,9.10
2023-02-28T19:36:52.994Z,10.90
2023-02-28T19:37:52.945Z,15.90
2023-02-28T19:38:52.916Z,18.30
2023-02-28T19:39:52.842Z,28.60
2023-02-28T19:40:52.793Z,33.90
2023-02-28T19:41:52.739Z,40.80
2023-02-28T19:42:52.690Z,87.00
2023-02-28T19:43:52.648Z,88.00
2023-02-28T19:44:52.604Z,134.20
2023-02-28T19:45:52.603Z,118.30
2023-02-28T19:46:52.495Z,102.70
2023-02-28T19:47:52.470Z,96.10
2023-02-28T19:48:52.401Z,78.90
2023-02-28T19:49:52.352Z,76.20
2023-02-28T19:50:52.299Z,68.80
2023-02-28T19:51:52.280Z,65.20
2023-02-28T19:52:52.203Z,60.80
2023-02-28T19:53:52.187Z,53.20
2023-02-28T19:54:52.136Z,47.80
2023-02-28T19:55:52.132Z,44.20
2023-02-28T19:56:52.046Z,39.80
2023-02-28T19:57:51.963Z,38.00
2023-02-28T19:58:51.913Z,35.00
2023-02-28T19:59:52.110Z,36.40
2023-02-28T20:00:51.895Z,36.00
2023-02-28T20:01:51.762Z,36.80
2023-02-28T20:02:51.709Z,34.70
2023-02-28T20:03:51.677Z,37.80
2023-02-28T20:04:51.677Z,33.90
2023-02-28T20:05:51.566Z,32.30
2023-02-28T20:06:51.517Z,29.40
2023-02-28T20:07:51.579Z,30.60
2023-02-28T20:08:51.418Z,29.50
2023-02-28T20:09:51.384Z,29.60
2023-02-28T20:10:51.317Z,28.90
2023-02-28T20:11:51.268Z,28.20
2023-02-28T20:12:51.226Z,27.20
2023-02-28T20:13:51.171Z,25.30
2023-02-28T20:14:51.136Z,24.30
2023-02-28T20:15:51.082Z,25.40
2023-02-28T20:16:51.094Z,25.30
2023-02-28T20:17:50.977Z,23.30
2023-02-28T20:18:50.938Z,26.10
2023-02-28T20:19:50.886Z,25.60
2023-02-28T20:20:50.828Z,28.00
2023-02-28T20:21:50.775Z,25.30
2023-02-28T20:22:50.749Z,28.90
2023-02-28T20:23:50.697Z,27.90
2023-02-28T20:24:50.628Z,27.20
2023-02-28T20:25:50.589Z,26.00
2023-02-28T20:26:50.528Z,24.40
2023-02-28T20:27:50.483Z,22.00
2023-02-28T20:28:50.434Z,21.50
2023-02-28T20:29:50.382Z,21.10
2023-02-28T20:30:50.427Z,19.20
2023-02-28T20:31:50.325Z,19.80
2023-02-28T20:32:50.256Z,19.30
2023-02-28T20:33:50.189Z,19.00
2023-02-28T20:34:50.146Z,18.50
2023-02-28T20:35:50.125Z,20.30
2023-02-28T20:36:50.039Z,19.40
2023-02-28T20:37:50.032Z,20.30
2023-02-28T20:38:49.935Z,20.20
2023-02-28T20:39:49.905Z,20.90
2023-02-28T20:40:49.839Z,20.90
2023-02-28T20:41:49.788Z,20.50
2023-02-28T20:42:49.742Z,20.70
2023-02-28T20:43:49.703Z,21.50
2023-02-28T20:44:49.643Z,20.50
2023-02-28T20:45:49.824Z,21.20
2023-02-28T20:46:49.549Z,21.70
2023-02-28T20:47:49.497Z,21.60
2023-02-28T20:48:49.451Z,25.70
2023-02-28T20:49:49.392Z,31.00
2023-02-28T20:50:49.343Z,37.90
2023-02-28T20:51:49.294Z,38.60
2023-02-28T20:52:49.244Z,33.40
2023-02-28T20:53:49.197Z,30.80
2023-02-28T20:54:49.146Z,28.20
2023-02-28T20:55:49.114Z,27.60
2023-02-28T20:56:49.044Z,25.30
2023-02-28T20:57:48.997Z,23.80
2023-02-28T20:58:48.950Z,24.70
2023-02-28T20:59:48.906Z,21.10
2023-02-28T21:00:48.847Z,20.40
2023-02-28T21:01:48.891Z,18.80
2023-02-28T21:02:48.804Z,18.80
2023-02-28T21:03:48.703Z,18.00
2023-02-28T21:04:48.652Z,18.70
2023-02-28T21:05:48.604Z,17.80
2023-02-28T21:06:48.554Z,18.00
2023-02-28T21:07:48.506Z,17.70
2023-02-28T21:08:48.464Z,17.50
2023-02-28T21:09:48.402Z,17.30
2023-02-28T21:10:48.357Z,18.40
2023-02-28T21:11:48.350Z,17.60
2023-02-28T21:12:48.262Z,16.90
